createdAt,value
2019-04-21T00:01:10.800Z,17.80
2019-04-21T00:03:47.717Z,17.80
2019-04-21T00:06:29.923Z,17.80
2019-04-21T00:09:05.846Z,17.70
2019-04-21T00:11:29.262Z,17.70
2019-04-21T00:13:53.871Z,17.60
2019-04-21T00:16:12.593Z,17.60
2019-04-21T00:19:00.842Z,17.50
2019-04-21T00:21:31.628Z,17.50
2019-04-21T00:24:23.991Z,17.50
2019-04-21T00:27:03.892Z,17.40
2019-04-21T00:29:35.388Z,17.40
2019-04-21T00:32:00.343Z,17.30
2019-04-21T00:34:15.319Z,17.20
2019-04-21T00:36:56.008Z,17.20
2019-04-21T00:39:45.025Z,17.10
2019-04-21T00:42:06.318Z,17.10
2019-04-21T00:44:28.376Z,17.00
2019-04-21T00:47:00.330Z,17.00
2019-04-21T00:49:34.326Z,17.00
2019-04-21T00:55:14.215Z,16.90
2019-04-21T00:57:41.280Z,16.80
2019-04-21T01:00:08.855Z,16.70
2019-04-21T01:02:43.671Z,16.70
2019-04-21T01:05:15.176Z,16.70
2019-04-21T01:07:36.020Z,16.60
2019-04-21T01:10:00.145Z,16.60
2019-04-21T01:12:39.694Z,16.60
2019-04-21T01:15:12.149Z,16.60
2019-04-21T01:17:35.751Z,16.60
2019-04-21T01:20:01.453Z,16.50
2019-04-21T01:22:14.778Z,16.50
2019-04-21T01:24:47.234Z,16.50
2019-04-21T01:27:26.320Z,16.50
2019-04-21T01:30:10.014Z,16.50
2019-04-21T01:32:35.614Z,16.40
2019-04-21T01:35:02.778Z,16.40
2019-04-21T01:37:44.163Z,16.40
2019-04-21T01:40:08.723Z,16.40
2019-04-21T01:42:31.572Z,16.40
2019-04-21T01:45:04.189Z,16.30
2019-04-21T01:47:31.519Z,16.30
2019-04-21T01:49:55.611Z,16.30
2019-04-21T01:52:43.895Z,16.20
2019-04-21T01:55:14.048Z,16.20
2019-04-21T01:57:42.625Z,16.20
2019-04-21T02:00:13.617Z,16.10
2019-04-21T02:02:59.380Z,16.00
2019-04-21T02:05:31.346Z,16.00
2019-04-21T02:08:15.520Z,15.90
2019-04-21T02:10:55.627Z,15.90
2019-04-21T02:13:18.837Z,15.90
2019-04-21T02:15:48.939Z,15.90
2019-04-21T02:18:19.107Z,15.80
2019-04-21T02:20:39.858Z,15.80
2019-04-21T02:23:26.448Z,15.70
2019-04-21T02:25:50.985Z,15.70
2019-04-21T02:28:28.044Z,15.70
2019-04-21T02:31:09.629Z,15.60
2019-04-21T02:36:18.944Z,15.50
2019-04-21T02:43:28.896Z,15.40
2019-04-21T02:46:04.406Z,15.40
2019-04-21T02:51:04.719Z,15.30
2019-04-21T02:53:45.508Z,15.30
2019-04-21T02:56:01.085Z,15.20
2019-04-21T02:58:53.097Z,15.20
2019-04-21T03:01:23.790Z,15.10
2019-04-21T03:03:54.383Z,15.10
2019-04-21T03:06:40.257Z,15.00
2019-04-21T03:11:34.995Z,14.90
2019-04-21T03:14:16.496Z,14.90
2019-04-21T03:16:43.279Z,14.80
2019-04-21T03:19:19.449Z,14.80
2019-04-21T03:21:50.626Z,14.80
2019-04-21T03:24:49.075Z,14.70
2019-04-21T03:26:51.546Z,14.70
2019-04-21T03:29:19.668Z,14.60
2019-04-21T03:39:15.152Z,14.60
2019-04-21T03:41:50.123Z,14.50
2019-04-21T03:44:16.599Z,14.50
2019-04-21T03:46:49.809Z,14.40
2019-04-21T03:49:20.634Z,14.40
2019-04-21T03:51:48.354Z,14.30
2019-04-21T03:54:20.150Z,14.30
2019-04-21T03:56:59.224Z,14.30
2019-04-21T03:59:12.214Z,14.20
2019-04-21T04:02:08.734Z,14.20
2019-04-21T04:04:45.662Z,14.20
2019-04-21T04:07:50.198Z,14.10
2019-04-21T04:10:03.591Z,14.00
2019-04-21T04:12:19.593Z,14.00
2019-04-21T04:14:50.127Z,14.00
2019-04-21T04:17:26.243Z,13.90
2019-04-21T04:19:58.283Z,13.90
2019-04-21T04:25:09.366Z,13.90
2019-04-21T04:30:04.314Z,13.90
2019-04-21T04:32:28.599Z,13.90
2019-04-21T04:35:05.763Z,13.90
2019-04-21T04:37:46.946Z,13.90
2019-04-21T04:40:13.686Z,13.90
2019-04-21T04:55:03.754Z,13.90
2019-04-21T05:00:14.335Z,13.90
2019-04-21T05:05:13.721Z,14.00
2019-04-21T05:09:59.478Z,14.00
2019-04-21T05:12:29.217Z,14.00
2019-04-21T05:17:37.843Z,14.00
2019-04-21T05:20:08.598Z,14.00
2019-04-21T05:22:30.961Z,14.10
2019-04-21T05:24:54.333Z,14.10
2019-04-21T05:27:29.356Z,14.20
2019-04-21T05:30:16.866Z,14.20
2019-04-21T05:32:48.852Z,14.20
2019-04-21T05:35:20.057Z,14.40
2019-04-21T05:37:47.627Z,14.40
2019-04-21T05:40:19.570Z,14.50
2019-04-21T05:42:53.283Z,14.50
2019-04-21T05:45:34.842Z,14.50
2019-04-21T05:48:15.919Z,14.60
2019-04-21T05:50:26.571Z,14.70
2019-04-21T05:52:58.551Z,14.80
2019-04-21T05:55:36.006Z,14.80
2019-04-21T05:58:02.543Z,14.90
2019-04-21T06:01:03.872Z,15.00
2019-04-21T06:03:10.014Z,15.10
2019-04-21T06:05:49.512Z,15.20
2019-04-21T06:08:08.147Z,15.30
2019-04-21T06:10:45.934Z,15.50
2019-04-21T06:13:13.436Z,15.50
2019-04-21T06:15:42.977Z,15.60
2019-04-21T06:18:13.488Z,15.70
2019-04-21T06:20:44.539Z,15.80
2019-04-21T06:23:11.557Z,15.90
2019-04-21T06:25:54.976Z,16.00
2019-04-21T06:28:17.878Z,16.00
2019-04-21T06:30:55.703Z,16.20
2019-04-21T06:33:15.419Z,16.20
2019-04-21T06:36:11.405Z,16.30
2019-04-21T06:38:53.861Z,16.40
2019-04-21T06:41:13.463Z,16.60
2019-04-21T06:43:51.407Z,16.80
2019-04-21T06:46:20.041Z,16.80
2019-04-21T06:48:40.962Z,16.90
2019-04-21T06:51:16.685Z,17.00
2019-04-21T06:53:44.784Z,17.10
2019-04-21T06:56:12.158Z,17.20
2019-04-21T06:58:42.823Z,17.50
2019-04-21T07:01:15.934Z,17.50
2019-04-21T07:03:49.400Z,17.50
2019-04-21T07:06:12.642Z,17.60
2019-04-21T07:08:56.725Z,17.80
2019-04-21T07:11:08.679Z,17.90
2019-04-21T07:13:36.760Z,18.00
2019-04-21T07:16:19.128Z,18.20
2019-04-21T07:18:53.329Z,18.30
2019-04-21T07:21:15.831Z,18.40
2019-04-21T07:23:47.210Z,18.50
2019-04-21T07:26:10.473Z,18.60
2019-04-21T07:28:52.688Z,18.80
2019-04-21T07:31:29.144Z,18.80
2019-04-21T07:33:54.224Z,18.90
2019-04-21T07:36:21.391Z,19.10
2019-04-21T07:38:39.901Z,19.20
2019-04-21T07:41:11.291Z,19.50
2019-04-21T07:43:38.100Z,19.60
2019-04-21T07:46:10.124Z,19.60
2019-04-21T07:48:54.202Z,19.90
2019-04-21T07:54:32.054Z,20.10
2019-04-21T07:56:39.857Z,20.30
2019-04-21T07:59:40.872Z,20.50
2019-04-21T08:02:02.683Z,20.60
2019-04-21T08:04:44.015Z,20.60
2019-04-21T08:06:58.198Z,20.70
2019-04-21T08:09:29.462Z,20.80
2019-04-21T08:11:53.262Z,20.80
2019-04-21T08:14:28.336Z,20.90
2019-04-21T08:17:04.859Z,21.00
2019-04-21T08:19:32.519Z,21.30
2019-04-21T08:22:09.535Z,21.30
2019-04-21T08:24:27.427Z,21.40
2019-04-21T08:27:06.279Z,21.70
2019-04-21T08:29:38.049Z,21.80
2019-04-21T08:32:11.918Z,21.90
2019-04-21T08:34:37.368Z,22.00
2019-04-21T08:36:57.247Z,22.20
2019-04-21T08:39:42.445Z,22.40
2019-04-21T08:42:03.306Z,22.60
2019-04-21T08:44:33.368Z,22.70
2019-04-21T08:47:07.241Z,22.90
2019-04-21T08:49:36.340Z,22.90
2019-04-21T08:52:09.933Z,23.10
2019-04-21T08:54:32.698Z,23.20
2019-04-21T08:57:07.829Z,23.20
2019-04-21T09:00:01.403Z,23.40
2019-04-21T09:05:04.676Z,23.60
2019-04-21T09:07:39.428Z,23.60
2019-04-21T09:10:02.910Z,23.70
2019-04-21T09:12:38.820Z,23.90
2019-04-21T09:15:08.297Z,24.00
2019-04-21T09:17:28.628Z,24.00
2019-04-21T09:20:13.789Z,24.10
2019-04-21T09:22:37.708Z,24.20
2019-04-21T09:25:09.089Z,24.30
2019-04-21T09:27:36.668Z,24.40
2019-04-21T09:29:55.880Z,24.40
2019-04-21T09:32:25.162Z,24.40
2019-04-21T09:34:52.760Z,24.50
2019-04-21T09:37:34.037Z,24.50
2019-04-21T09:39:55.183Z,24.60
2019-04-21T09:42:30.634Z,24.60
2019-04-21T09:44:57.075Z,24.70
2019-04-21T09:47:24.943Z,24.70
2019-04-21T09:49:52.472Z,24.80
2019-04-21T09:52:25.592Z,24.80
2019-04-21T09:55:00.884Z,24.90
2019-04-21T09:57:31.361Z,24.90
2019-04-21T10:00:02.464Z,25.00
2019-04-21T10:02:34.210Z,25.00
2019-04-21T10:04:52.742Z,25.10
2019-04-21T10:07:29.325Z,25.10
2019-04-21T10:09:52.406Z,25.20
2019-04-21T10:12:21.016Z,25.20
2019-04-21T10:14:49.559Z,25.20
2019-04-21T10:17:22.360Z,25.30
2019-04-21T10:19:50.880Z,25.30
2019-04-21T10:22:19.331Z,25.40
2019-04-21T10:24:48.825Z,25.30
2019-04-21T10:27:17.433Z,25.40
2019-04-21T10:29:47.183Z,25.50
2019-04-21T10:32:18.648Z,25.50
2019-04-21T10:34:47.508Z,25.50
2019-04-21T10:37:16.673Z,25.60
2019-04-21T10:39:45.425Z,25.60
2019-04-21T10:42:15.398Z,25.60
2019-04-21T10:44:45.125Z,25.70
2019-04-21T10:47:14.507Z,25.70
2019-04-21T10:49:44.595Z,25.80
2019-04-21T10:52:15.249Z,25.70
2019-04-21T10:55:06.815Z,25.80
2019-04-21T10:57:16.725Z,25.80
2019-04-21T10:59:47.976Z,25.90
2019-04-21T11:02:21.077Z,25.90
2019-04-21T11:04:51.046Z,26.00
2019-04-21T11:07:53.073Z,26.00
2019-04-21T11:10:07.996Z,26.10
2019-04-21T11:12:38.132Z,26.10
2019-04-21T11:15:07.285Z,26.20
2019-04-21T11:17:36.458Z,26.30
2019-04-21T11:20:06.654Z,26.30
2019-04-21T11:22:35.702Z,26.30
2019-04-21T11:25:07.001Z,26.30
2019-04-21T11:27:35.521Z,26.30
2019-04-21T11:30:07.492Z,26.30
2019-04-21T11:32:37.080Z,26.30
2019-04-21T11:35:07.269Z,26.30
2019-04-21T11:37:35.951Z,26.30
2019-04-21T11:40:10.798Z,26.40
2019-04-21T11:42:39.695Z,26.40
2019-04-21T11:45:08.546Z,26.50
2019-04-21T11:47:38.649Z,26.50
2019-04-21T11:50:07.453Z,26.60
2019-04-21T11:52:36.891Z,26.60
2019-04-21T11:55:07.035Z,26.60
2019-04-21T11:57:40.146Z,26.70
2019-04-21T12:00:06.540Z,26.70
2019-04-21T12:02:35.303Z,26.70
2019-04-21T12:05:05.482Z,26.80
2019-04-21T12:07:35.290Z,26.80
2019-04-21T12:10:05.765Z,26.90
2019-04-21T12:12:35.086Z,26.90
2019-04-21T12:15:06.081Z,26.90
2019-04-21T12:17:34.614Z,27.00
2019-04-21T12:20:03.936Z,27.10
2019-04-21T12:22:33.931Z,27.10
2019-04-21T12:25:05.098Z,27.20
2019-04-21T12:27:33.988Z,27.30
2019-04-21T12:30:03.905Z,27.40
2019-04-21T12:32:55.966Z,27.40
2019-04-21T12:35:21.752Z,27.50
2019-04-21T12:37:51.044Z,27.50
2019-04-21T12:40:20.976Z,27.60
2019-04-21T12:42:50.463Z,27.60
2019-04-21T12:45:19.336Z,27.60
2019-04-21T12:47:50.320Z,27.60
2019-04-21T12:50:18.901Z,27.60
2019-04-21T12:52:47.699Z,27.60
2019-04-21T12:55:17.659Z,27.70
2019-04-21T12:57:47.583Z,27.70
2019-04-21T13:00:20.772Z,27.80
2019-04-21T13:02:49.884Z,27.80
2019-04-21T13:05:19.854Z,27.90
2019-04-21T13:07:49.187Z,27.90
2019-04-21T13:10:18.646Z,27.90
2019-04-21T13:12:48.014Z,28.00
2019-04-21T13:15:17.870Z,28.00
2019-04-21T13:17:47.421Z,28.20
2019-04-21T13:20:17.054Z,28.20
2019-04-21T13:22:48.082Z,28.20
2019-04-21T13:25:18.059Z,28.30
2019-04-21T13:27:47.231Z,28.40
2019-04-21T13:30:16.289Z,28.40
2019-04-21T13:32:45.237Z,28.50
2019-04-21T13:35:15.060Z,28.50
2019-04-21T13:37:43.777Z,28.60
2019-04-21T13:40:48.682Z,28.70
2019-04-21T13:43:04.363Z,28.70
2019-04-21T13:45:32.178Z,28.80
2019-04-21T13:48:01.149Z,28.90
2019-04-21T13:50:31.081Z,29.00
2019-04-21T13:53:00.689Z,29.00
2019-04-21T13:55:29.716Z,29.10
2019-04-21T13:57:58.813Z,29.20
2019-04-21T14:00:27.903Z,29.20
2019-04-21T14:02:56.540Z,29.30
2019-04-21T14:05:26.432Z,29.40
2019-04-21T14:07:56.236Z,29.40
2019-04-21T14:10:25.865Z,29.50
2019-04-21T14:12:54.462Z,29.60
2019-04-21T14:15:24.197Z,29.60
2019-04-21T14:17:53.037Z,29.70
2019-04-21T14:20:21.897Z,29.90
2019-04-21T14:22:50.435Z,30.00
2019-04-21T14:25:21.518Z,30.00
2019-04-21T14:27:52.030Z,30.10
2019-04-21T14:30:20.894Z,30.20
2019-04-21T14:32:49.887Z,30.30
2019-04-21T14:35:18.939Z,30.40
2019-04-21T14:37:48.866Z,30.40
2019-04-21T14:40:22.517Z,30.50
2019-04-21T14:42:47.917Z,30.60
2019-04-21T14:45:36.837Z,30.70
2019-04-21T14:48:07.263Z,30.90
2019-04-21T14:50:40.067Z,31.00
2019-04-21T14:53:20.102Z,31.10
2019-04-21T14:55:49.162Z,31.20
2019-04-21T14:58:19.015Z,31.20
2019-04-21T15:00:51.399Z,31.30
2019-04-21T15:03:21.656Z,31.50
2019-04-21T15:05:51.521Z,31.50
2019-04-21T15:08:21.477Z,31.60
2019-04-21T15:10:50.045Z,31.60
2019-04-21T15:13:19.550Z,31.70
2019-04-21T15:15:48.270Z,31.80
2019-04-21T15:18:16.924Z,31.90
2019-04-21T15:20:47.304Z,32.40
2019-04-21T15:23:15.793Z,33.00
2019-04-21T15:25:44.268Z,33.80
2019-04-21T15:28:15.918Z,34.80
2019-04-21T15:30:44.721Z,35.90
2019-04-21T15:33:13.257Z,37.10
2019-04-21T15:35:42.811Z,38.30
2019-04-21T15:38:11.871Z,39.40
2019-04-21T15:40:49.710Z,40.50
2019-04-21T15:43:10.730Z,41.60
2019-04-21T15:45:39.310Z,42.50
2019-04-21T15:48:07.917Z,43.30
2019-04-21T15:50:37.695Z,44.10
2019-04-21T15:53:08.010Z,44.70
2019-04-21T15:55:50.802Z,45.30
2019-04-21T15:58:21.139Z,45.70
2019-04-21T16:00:54.462Z,46.20
2019-04-21T16:03:22.979Z,46.50
2019-04-21T16:05:51.429Z,46.80
2019-04-21T16:08:20.430Z,47.00
2019-04-21T16:10:56.207Z,47.20
2019-04-21T16:13:21.582Z,47.40
2019-04-21T16:15:50.573Z,47.40
2019-04-21T16:18:20.455Z,47.50
2019-04-21T16:20:50.112Z,47.50
2019-04-21T16:23:20.259Z,47.50
2019-04-21T16:25:48.888Z,47.50
2019-04-21T16:28:17.483Z,47.50
2019-04-21T16:30:46.543Z,47.50
2019-04-21T16:33:16.009Z,47.40
2019-04-21T16:35:44.635Z,47.40
2019-04-21T16:38:13.383Z,47.20
2019-04-21T16:40:50.570Z,47.00
2019-04-21T16:43:12.312Z,46.80
2019-04-21T16:45:42.845Z,46.50
2019-04-21T16:48:12.988Z,46.30
2019-04-21T16:50:41.986Z,46.10
2019-04-21T16:53:24.392Z,45.90
2019-04-21T16:55:57.414Z,45.70
2019-04-21T16:58:29.085Z,45.50
2019-04-21T17:01:08.255Z,45.20
2019-04-21T17:03:32.745Z,44.90
2019-04-21T17:06:04.633Z,44.40
2019-04-21T17:08:31.735Z,43.20
2019-04-21T17:11:10.933Z,43.10
2019-04-21T17:13:32.065Z,42.30
2019-04-21T17:16:30.064Z,41.30
2019-04-21T17:18:44.638Z,39.20
2019-04-21T17:21:03.034Z,39.10
2019-04-21T17:23:31.495Z,38.20
2019-04-21T17:26:01.149Z,37.10
2019-04-21T17:28:29.952Z,35.30
2019-04-21T17:30:58.575Z,35.20
2019-04-21T17:33:28.910Z,34.50
2019-04-21T17:35:58.664Z,33.70
2019-04-21T17:41:09.302Z,32.40
2019-04-21T17:43:27.607Z,31.80
2019-04-21T17:45:57.474Z,31.30
2019-04-21T17:48:27.155Z,30.80
2019-04-21T17:51:01.284Z,30.30
2019-04-21T17:53:38.517Z,29.90
2019-04-21T17:56:23.125Z,29.50
2019-04-21T17:58:52.378Z,28.80
2019-04-21T18:01:26.356Z,28.80
2019-04-21T18:03:58.793Z,28.50
2019-04-21T18:06:25.708Z,28.20
2019-04-21T18:09:00.984Z,27.80
2019-04-21T18:11:18.137Z,27.70
2019-04-21T18:13:39.642Z,27.50
2019-04-21T18:16:20.693Z,27.30
2019-04-21T18:18:39.162Z,26.90
2019-04-21T18:21:26.856Z,26.90
2019-04-21T18:24:05.682Z,26.80
2019-04-21T18:26:38.035Z,26.60
2019-04-21T18:28:59.643Z,26.40
2019-04-21T18:31:33.813Z,26.30
2019-04-21T18:34:05.028Z,26.10
2019-04-21T18:36:37.682Z,26.00
2019-04-21T18:39:33.899Z,25.90
2019-04-21T18:42:11.756Z,25.90
2019-04-21T18:44:53.888Z,25.70
2019-04-21T18:47:14.729Z,25.60
2019-04-21T18:49:33.282Z,25.50
2019-04-21T18:52:17.100Z,25.40
2019-04-21T18:54:51.504Z,25.30
2019-04-21T18:57:17.248Z,25.30
2019-04-21T18:59:40.194Z,25.10
2019-04-21T19:02:11.265Z,24.90
2019-04-21T19:04:39.068Z,24.80
2019-04-21T19:07:21.036Z,24.70
2019-04-21T19:12:36.584Z,24.60
2019-04-21T19:14:54.946Z,24.50
2019-04-21T19:20:08.983Z,24.20
2019-04-21T19:22:31.226Z,24.10
2019-04-21T19:24:59.511Z,24.00
2019-04-21T19:27:26.348Z,24.00
2019-04-21T19:30:05.152Z,23.80
2019-04-21T19:32:28.800Z,23.80
2019-04-21T19:34:45.494Z,23.70
2019-04-21T19:37:16.529Z,23.60
2019-04-21T19:39:56.673Z,23.50
2019-04-21T19:42:22.624Z,23.50
2019-04-21T19:44:56.359Z,23.40
2019-04-21T19:47:32.886Z,23.40
2019-04-21T19:50:01.476Z,23.30
2019-04-21T19:52:29.488Z,23.30
2019-04-21T19:54:46.509Z,23.20
2019-04-21T19:57:13.252Z,23.10
2019-04-21T19:59:48.060Z,23.00
2019-04-21T20:02:12.277Z,23.00
2019-04-21T20:04:50.126Z,22.90
2019-04-21T20:07:28.902Z,22.90
2019-04-21T20:10:02.395Z,22.70
2019-04-21T20:12:36.574Z,22.70
2019-04-21T20:15:16.857Z,22.60
2019-04-21T20:17:31.075Z,22.60
2019-04-21T20:19:42.439Z,22.40
2019-04-21T20:22:11.359Z,22.40
2019-04-21T20:24:44.980Z,22.30
2019-04-21T20:27:17.738Z,22.20
2019-04-21T20:29:56.231Z,22.00
2019-04-21T20:32:43.018Z,21.90
2019-04-21T20:35:02.774Z,21.80
2019-04-21T20:37:26.484Z,21.70
2019-04-21T20:39:48.996Z,21.50
2019-04-21T20:42:24.353Z,21.50
2019-04-21T20:45:16.661Z,21.40
2019-04-21T20:47:23.257Z,21.30
2019-04-21T20:49:57.158Z,21.20
2019-04-21T20:52:41.801Z,21.10
2019-04-21T20:54:55.101Z,21.00
2019-04-21T20:57:26.387Z,20.90
2019-04-21T20:59:58.027Z,20.70
2019-04-21T21:02:28.432Z,20.70
2019-04-21T21:04:54.025Z,20.60
2019-04-21T21:07:40.258Z,20.50
2019-04-21T21:10:04.452Z,20.40
2019-04-21T21:12:41.718Z,20.40
2019-04-21T21:14:57.094Z,20.30
2019-04-21T21:20:07.741Z,20.10
2019-04-21T21:22:26.153Z,20.10
2019-04-21T21:25:03.567Z,20.10
2019-04-21T21:27:31.113Z,20.00
2019-04-21T21:29:59.604Z,20.00
2019-04-21T21:32:32.414Z,19.90
2019-04-21T21:35:02.919Z,19.90
2019-04-21T21:37:36.925Z,19.80
2019-04-21T21:40:02.861Z,19.80
2019-04-21T21:42:23.139Z,19.70
2019-04-21T21:44:54.606Z,19.70
2019-04-21T21:47:31.858Z,19.60
2019-04-21T21:49:57.830Z,19.60
2019-04-21T21:52:32.754Z,19.60
2019-04-21T21:54:47.578Z,19.50
2019-04-21T21:57:16.512Z,19.40
2019-04-21T21:59:45.428Z,19.40
2019-04-21T22:02:21.714Z,19.30
2019-04-21T22:04:50.973Z,19.30
2019-04-21T22:07:17.099Z,19.20
2019-04-21T22:09:46.194Z,19.10
2019-04-21T22:12:16.071Z,19.10
2019-04-21T22:14:48.415Z,19.00
2019-04-21T22:17:33.256Z,19.00
2019-04-21T22:20:21.829Z,18.90
2019-04-21T22:22:26.549Z,18.90
2019-04-21T22:24:55.657Z,18.80
2019-04-21T22:27:16.871Z,18.80
2019-04-21T22:29:49.775Z,18.70
2019-04-21T22:32:20.860Z,18.60
2019-04-21T22:34:52.354Z,18.60
2019-04-21T22:37:30.288Z,18.50
2019-04-21T22:40:00.805Z,18.50
2019-04-21T22:42:22.367Z,18.40
2019-04-21T22:44:46.564Z,18.40
2019-04-21T22:47:21.915Z,18.40
2019-04-21T22:49:46.438Z,18.30
2019-04-21T22:52:20.227Z,18.30
2019-04-21T22:54:46.872Z,18.20
2019-04-21T22:57:20.907Z,18.20
2019-04-21T22:59:54.873Z,18.10
2019-04-21T23:02:22.621Z,18.10
2019-04-21T23:04:50.953Z,18.00
2019-04-21T23:07:19.389Z,17.90
2019-04-21T23:09:47.521Z,17.80
2019-04-21T23:12:20.530Z,17.80
2019-04-21T23:14:57.189Z,17.80
2019-04-21T23:17:34.029Z,17.70
2019-04-21T23:20:10.535Z,17.70
2019-04-21T23:22:40.167Z,17.60
2019-04-21T23:25:07.483Z,17.60
2019-04-21T23:27:33.293Z,17.60
2019-04-21T23:30:13.533Z,17.50
2019-04-21T23:32:31.662Z,17.50
2019-04-21T23:34:49.164Z,17.40
2019-04-21T23:37:21.834Z,17.40
2019-04-21T23:39:54.669Z,17.30
2019-04-21T23:42:25.936Z,17.30
2019-04-21T23:44:52.927Z,17.20
2019-04-21T23:47:29.366Z,17.20
2019-04-21T23:49:58.370Z,17.10
2019-04-21T23:52:19.821Z,17.00
2019-04-21T23:54:49.338Z,17.00
2019-04-21T23:57:26.769Z,17.00
2019-04-21T23:59:53.377Z,16.90
